Time;durP1;ratioP1;P1;durP2;ratioP2;P2;SDS_P1;SDS_P2;PMS_P1;PMS_P2;Temp;Humidity;BMP_temperature;BMP_pressure;BME280_temperature;BME280_humidity;BME280_pressure;Samples;Min_cycle;Max_cycle;Signal;HPM_P1;HPM_P2
2022/01/24 00:01:53;;;;;;;27.67;15.77;;;;;;;;;;6224546;23;19988;-76
2022/01/24 00:04:20;;;;;;;21.95;11.73;;;;;;;;;;6224243;23;20000;-80
2022/01/24 00:06:47;;;;;;;17.90;10.35;;;;;;;;;;6199773;23;20114;-79
2022/01/24 00:09:13;;;;;;;17.35;9.57;;;;;;;;;;6201944;23;20000;-79
2022/01/24 00:27:22;;;;;;;17.80;9.90;;;;;;;;;;6316176;22;20022;-77
2022/01/24 00:29:48;;;;;;;20.65;11.63;;;;;;;;;;6315351;22;20053;-75
2022/01/24 00:32:14;;;;;;;28.65;14.32;;;;;;;;;;6315923;22;20003;-79
2022/01/24 00:34:40;;;;;;;28.83;16.90;;;;;;;;;;6317533;22;20051;-79
2022/01/24 00:37:07;;;;;;;28.92;15.80;;;;;;;;;;6319720;22;20011;-78
2022/01/24 00:39:33;;;;;;;26.58;16.08;;;;;;;;;;6316985;22;20000;-79
2022/01/24 00:47:02;;;;;;;41.30;22.52;;;;;;;;;;6322525;22;20025;-77
2022/01/24 00:49:49;;;;;;;45.15;22.95;;;;;;;;;;6316346;22;19999;-80
2022/01/24 00:55:00;;;;;;;38.95;20.15;;;;;;;;;;6317413;22;20014;-77
2022/01/24 00:57:26;;;;;;;37.40;20.20;;;;;;;;;;6319215;22;20026;-77
2022/01/24 00:59:53;;;;;;;38.05;19.38;;;;;;;;;;6317325;22;20417;-76
2022/01/24 01:02:19;;;;;;;33.50;16.90;;;;;;;;;;6317747;22;20003;-76
2022/01/24 01:07:33;;;;;;;40.20;22.20;;;;;;;;;;6330139;22;20007;-82
2022/01/24 01:18:16;;;;;;;27.83;15.98;;;;;;;;;;6317623;22;20082;-80
2022/01/24 01:21:08;;;;;;;22.95;12.35;;;;;;;;;;6320841;22;20002;-79
2022/01/24 01:23:37;;;;;;;23.65;12.93;;;;;;;;;;6316541;22;20026;-75
2022/01/24 01:26:08;;;;;;;24.08;13.15;;;;;;;;;;6320110;22;20019;-78
2022/01/24 01:28:36;;;;;;;20.80;11.88;;;;;;;;;;6290449;22;20003;-76
2022/01/24 01:31:08;;;;;;;22.23;12.45;;;;;;;;;;6315644;22;20436;-78
2022/01/24 01:36:14;;;;;;;27.92;15.23;;;;;;;;;;6335442;22;20010;-77
2022/01/24 01:52:50;;;;;;;20.63;12.05;;;;;;;;;;6223952;23;20016;-77
2022/01/24 01:57:39;;;;;;;30.55;17.10;;;;;;;;;;6233264;23;20013;-77
2022/01/24 02:00:08;;;;;;;33.88;17.67;;;;;;;;;;6196159;23;20009;-80
2022/01/24 02:02:35;;;;;;;33.65;17.08;;;;;;;;;;6196119;23;20005;-80
2022/01/24 02:05:01;;;;;;;28.58;14.80;;;;;;;;;;6221123;23;20020;-79
2022/01/24 02:07:27;;;;;;;22.83;12.27;;;;;;;;;;6220899;23;20008;-79
2022/01/24 02:09:53;;;;;;;25.08;13.25;;;;;;;;;;6223913;23;20016;-78
2022/01/24 02:12:23;;;;;;;28.33;15.30;;;;;;;;;;6220143;23;20000;-80
2022/01/24 02:14:56;;;;;;;41.20;19.00;;;;;;;;;;6219278;23;20418;-77
2022/01/24 02:17:42;;;;;;;44.83;22.13;;;;;;;;;;6204017;23;20021;-84
2022/01/24 02:20:37;;;;;;;34.13;17.33;;;;;;;;;;6221543;23;20522;-76
2022/01/24 02:25:48;;;;;;;28.42;14.70;;;;;;;;;;6318252;22;20038;-77
2022/01/24 02:28:16;;;;;;;25.65;12.85;;;;;;;;;;6285646;22;20038;-76
2022/01/24 02:33:19;;;;;;;23.20;12.02;;;;;;;;;;6326310;22;20122;-78
2022/01/24 02:35:45;;;;;;;23.25;12.18;;;;;;;;;;6316610;22;20003;-75
2022/01/24 02:38:28;;;;;;;21.45;11.82;;;;;;;;;;6316286;22;20011;-79
2022/01/24 02:49:15;;;;;;;22.13;11.75;;;;;;;;;;6314911;22;20015;-79
2022/01/24 02:51:46;;;;;;;20.55;11.82;;;;;;;;;;6315933;22;20006;-76
2022/01/24 02:54:30;;;;;;;20.63;11.57;;;;;;;;;;6314987;22;19995;-76
2022/01/24 02:56:58;;;;;;;23.95;13.75;;;;;;;;;;6315730;22;20049;-79
2022/01/24 02:59:25;;;;;;;27.60;14.27;;;;;;;;;;6315607;22;20006;-77
2022/01/24 03:01:54;;;;;;;26.95;13.75;;;;;;;;;;6315579;22;19995;-76
2022/01/24 03:04:20;;;;;;;23.15;12.98;;;;;;;;;;6317375;22;20004;-76
2022/01/24 03:06:46;;;;;;;25.63;13.85;;;;;;;;;;6319330;22;20003;-77
2022/01/24 03:09:13;;;;;;;23.60;13.05;;;;;;;;;;6318160;22;19996;-75
2022/01/24 03:14:25;;;;;;;23.80;12.88;;;;;;;;;;6320050;22;20467;-77
2022/01/24 03:16:54;;;;;;;22.63;13.18;;;;;;;;;;6315158;22;20017;-79
2022/01/24 03:19:20;;;;;;;24.05;13.32;;;141.40;2176.00;;;;;;6315073;22;20002;-76
2022/01/24 03:21:46;;;;;;;23.45;13.25;;;141.50;2176.00;;;;;;6314732;22;20007;-78
2022/01/24 03:24:13;;;;;;;24.65;13.10;;;141.60;2176.00;;;;;;6313466;22;20045;-77
2022/01/24 03:26:39;;;;;;;21.67;12.88;;;141.60;2176.00;;;;;;6287008;22;20011;-74
2022/01/24 03:29:06;;;;;;;37.03;19.35;;;141.60;2176.00;;;;;;6313668;22;20074;-77
2022/01/24 03:31:32;;;;;;;34.40;18.10;;;166.70;2176.00;;;;;;6313614;22;20444;-76
2022/01/24 03:33:58;;;;;;;29.52;15.88;;;141.70;2176.00;;;;;;6313375;22;20003;-75
2022/01/24 03:36:24;;;;;;;28.77;14.98;;;166.40;2176.00;;;;;;6318539;22;20019;-76
2022/01/24 03:38:50;;;;;;;28.80;14.77;;;166.50;2176.00;;;;;;6316587;22;20002;-76
2022/01/24 03:41:15;;;;;;;26.15;14.07;;;166.40;2176.00;;;;;;6284449;22;20082;-75
2022/01/24 03:43:41;;;;;;;29.92;15.23;;;166.50;2176.00;;;;;;6311246;22;20072;-75
2022/01/24 03:48:44;;;;;;;26.58;13.90;;;166.50;2176.00;;;;;;6322846;22;20439;-81
2022/01/24 03:51:11;;;;;;;26.48;14.32;;;166.50;2176.00;;;;;;6318083;22;20004;-79
2022/01/24 03:53:38;;;;;;;33.35;17.88;;;166.50;2176.00;;;;;;6258535;22;19999;-74
2022/01/24 03:56:14;;;;;;;34.50;16.67;;;166.50;2176.00;;;;;;6317342;22;20325;-76
2022/01/24 03:58:41;;;;;;;24.42;13.75;;;166.60;2176.00;;;;;;6311112;22;19999;-77
2022/01/24 04:01:09;;;;;;;28.17;15.07;;;166.60;2176.00;;;;;;6309341;22;20110;-77
2022/01/24 04:03:37;;;;;;;28.40;15.57;;;166.60;2176.00;;;;;;6313193;22;20000;-75
2022/01/24 04:06:20;;;;;;;34.40;19.33;;;166.70;2176.00;;;;;;6285802;22;20034;-79
2022/01/24 04:08:46;;;;;;;25.88;14.10;;;166.60;2176.00;;;;;;6288102;22;20428;-79
2022/01/24 04:11:14;;;;;;;20.45;12.27;;;166.60;2176.00;;;;;;6311807;22;20333;-77
2022/01/24 04:13:43;;;;;;;21.45;13.10;;;166.60;2176.00;;;;;;6312466;22;20026;-75
2022/01/24 04:18:51;;;;;;;25.52;14.65;;;166.60;2176.00;;;;;;6322038;22;20003;-79
2022/01/24 04:21:37;;;;;;;20.80;12.10;;;166.60;2176.00;;;;;;6308895;22;20060;-76
2022/01/24 04:26:31;;;;;;;34.60;18.02;;;166.60;2176.00;;;;;;6328550;22;20421;-74
2022/01/24 04:28:58;;;;;;;20.30;11.98;;;166.60;2176.00;;;;;;6284174;22;20450;-74
2022/01/24 04:31:24;;;;;;;32.65;17.00;;;166.60;2176.00;;;;;;6312105;22;19999;-74
2022/01/24 04:33:50;;;;;;;25.70;13.98;;;166.60;2176.00;;;;;;6309805;22;19999;-73
2022/01/24 04:36:17;;;;;;;44.20;20.88;;;166.60;2176.00;;;;;;6310213;22;19995;-78
2022/01/24 04:38:44;;;;;;;29.83;13.40;;;166.60;2176.00;;;;;;6313061;22;20374;-77
2022/01/24 04:41:21;;;;;;;21.60;12.15;;;166.60;2176.00;;;;;;6311074;22;20007;-76
2022/01/24 04:46:31;;;;;;;30.67;15.60;;;166.60;2176.00;;;;;;6317422;22;20025;-80
2022/01/24 04:56:43;;;;;;;32.05;15.52;;;166.70;2176.00;;;;;;6322842;22;20015;-78
2022/01/24 04:59:10;;;;;;;23.05;12.50;;;166.70;2176.00;;;;;;6319274;22;20026;-73
2022/01/24 05:01:36;;;;;;;27.95;15.90;;;167.30;2176.00;;;;;;6283751;22;19999;-71
2022/01/24 05:04:02;;;;;;;27.38;15.45;;;166.70;2176.00;;;;;;6311695;22;20006;-75
2022/01/24 05:06:28;;;;;;;17.73;10.55;;;166.80;2176.00;;;;;;6322226;22;20436;-75
2022/01/24 05:08:54;;;;;;;23.73;12.60;;;166.80;2176.00;;;;;;6311628;22;20317;-78
2022/01/24 05:11:37;;;;;;;28.58;14.70;;;166.70;2176.00;;;;;;6316786;22;20000;-78
2022/01/24 05:24:51;;;;;;;25.08;12.32;;;166.80;2176.00;;;;;;6333493;22;19999;-75
2022/01/24 05:27:19;;;;;;;28.70;14.68;;;166.90;2176.00;;;;;;6316249;22;20018;-73
2022/01/24 05:29:45;;;;;;;28.85;15.80;;;166.90;2176.00;;;;;;6312216;22;20003;-73
2022/01/24 05:32:12;;;;;;;30.73;16.33;;;167.00;2176.00;;;;;;6293039;22;20010;-79
2022/01/24 05:34:38;;;;;;;34.08;17.55;;;167.10;2176.00;;;;;;6286301;22;20465;-78
2022/01/24 05:37:03;;;;;;;30.67;17.00;;;167.00;2176.00;;;;;;6311816;22;20042;-72
2022/01/24 05:39:30;;;;;;;32.17;16.33;;;167.00;2176.00;;;;;;6318577;22;20006;-78
2022/01/24 05:41:55;;;;;;;32.60;16.85;;;167.00;2176.00;;;;;;6261472;22;19999;-79
2022/01/24 05:44:21;;;;;;;31.15;16.13;;;167.10;2176.00;;;;;;6310067;22;19999;-72
2022/01/24 05:46:47;;;;;;;32.67;16.27;;;167.10;2176.00;;;;;;6310440;22;20413;-80
2022/01/24 05:49:12;;;;;;;30.38;16.20;;;167.10;2176.00;;;;;;6311340;22;20431;-77
2022/01/24 05:51:38;;;;;;;33.67;16.10;;;167.20;2176.00;;;;;;6316589;22;20010;-75
2022/01/24 05:54:07;;;;;;;34.45;17.58;;;;;;;;;;6315134;22;19995;-78
2022/01/24 05:56:37;;;;;;;32.22;17.13;;;;;;;;;;6296002;22;20029;-78
2022/01/24 05:59:03;;;;;;;30.20;15.95;;;;;;;;;;6285019;22;20014;-75
2022/01/24 06:01:31;;;;;;;30.83;15.40;;;;;;;;;;6312218;22;19995;-77
2022/01/24 06:04:00;;;;;;;28.23;15.55;;;;;;;;;;6316424;22;19995;-76
2022/01/24 06:06:31;;;;;;;25.08;13.27;;;;;;;;;;6321508;22;20010;-79
2022/01/24 06:08:57;;;;;;;25.27;14.07;;;;;;;;;;6286253;22;20030;-77
2022/01/24 06:11:35;;;;;;;30.92;15.05;;;167.10;2176.00;;;;;;6313894;22;20003;-76
2022/01/24 06:14:02;;;;;;;26.08;13.63;;;167.20;2176.00;;;;;;6285992;22;20078;-77
2022/01/24 06:16:28;;;;;;;25.65;13.65;;;167.20;2176.00;;;;;;6312655;22;20011;-74
2022/01/24 06:18:54;;;;;;;25.42;14.13;;;167.20;2176.00;;;;;;6310966;22;20006;-79
2022/01/24 06:21:20;;;;;;;30.48;14.82;;;167.20;2176.00;;;;;;6317987;22;19999;-73
2022/01/24 06:23:46;;;;;;;30.80;14.85;;;167.20;2176.00;;;;;;6317130;22;19999;-78
2022/01/24 06:26:13;;;;;;;30.98;16.60;;;167.20;2176.00;;;;;;6317420;22;20451;-78
2022/01/24 06:28:39;;;;;;;31.98;15.43;;;167.20;2176.00;;;;;;6314986;22;20079;-74
2022/01/24 06:31:05;;;;;;;29.08;15.32;;;167.10;2176.00;;;;;;6286339;22;20003;-75
2022/01/24 06:33:31;;;;;;;25.23;14.57;;;167.20;2176.00;;;;;;6312669;22;19995;-76
2022/01/24 06:35:57;;;;;;;25.63;15.00;;;167.20;2176.00;;;;;;6284901;22;20025;-75
2022/01/24 06:38:23;;;;;;;43.08;20.00;;;167.10;2176.00;;;;;;6311222;22;20086;-74
2022/01/24 06:40:48;;;;;;;63.08;32.92;;;167.00;2176.00;;;;;;6311747;22;20082;-72
2022/01/24 06:43:18;;;;;;;31.40;17.58;;;166.90;2176.00;;;;;;6311686;22;20002;-76
2022/01/24 06:45:45;;;;;;;35.38;21.17;;;166.90;2176.00;;;;;;6311964;22;20017;-72
2022/01/24 06:48:10;;;;;;;34.38;20.42;;;166.80;2176.00;;;;;;6310132;22;20039;-73
2022/01/24 06:50:36;;;;;;;47.88;30.67;;;166.70;2176.00;;;;;;6312203;22;20082;-77
2022/01/24 06:53:02;;;;;;;47.30;30.45;;;166.80;2176.00;;;;;;6314977;22;20006;-79
2022/01/24 06:55:31;;;;;;;41.55;23.52;;;166.70;2176.00;;;;;;6311642;22;20872;-71
2022/01/24 06:57:58;;;;;;;35.80;20.63;;;166.60;2176.00;;;;;;6315641;22;20000;-75
2022/01/24 07:00:39;;;;;;;36.50;22.65;;;166.50;2176.00;;;;;;6313248;22;20003;-80
2022/01/24 07:03:08;;;;;;;35.33;19.65;;;166.60;2176.00;;;;;;6319009;22;20003;-78
2022/01/24 07:05:34;;;;;;;25.75;16.15;;;166.50;2176.00;;;;;;6288335;22;20099;-79
2022/01/24 07:08:01;;;;;;;27.30;15.25;;;166.40;2176.00;;;;;;6319010;22;20000;-76
2022/01/24 07:10:28;;;;;;;29.15;17.05;;;141.70;2176.00;;;;;;6321257;22;20049;-74
2022/01/24 07:12:54;;;;;;;41.25;20.98;;;141.70;2176.00;;;;;;6321465;22;20021;-75
2022/01/24 07:15:28;;;;;;;41.10;21.48;;;141.20;2176.00;;;;;;6296838;22;19999;-78
2022/01/24 07:18:15;;;;;;;34.42;19.80;;;141.50;2176.00;;;;;;6321237;22;20003;-77
2022/01/24 07:20:44;;;;;;;33.92;18.85;;;141.20;2176.00;;;;;;6321988;22;20014;-76
2022/01/24 07:23:18;;;;;;;36.58;20.08;;;140.90;2176.00;;;;;;6295613;22;20007;-75
2022/01/24 07:25:48;;;;;;;31.60;17.90;;;115.40;2176.00;;;;;;6243776;22;20023;-78
2022/01/24 07:28:14;;;;;;;25.25;15.82;;;90.10;2176.00;;;;;;6288881;22;20003;-76
2022/01/24 07:30:42;;;;;;;26.75;16.25;;;;;;;;;;6316260;22;20022;-77
2022/01/24 07:33:17;;;;;;;30.73;17.40;;;;;;;;;;6320241;22;20096;-87
2022/01/24 07:35:46;;;;;;;40.13;20.98;;;;;;;;;;6297017;22;20003;-78
2022/01/24 07:38:13;;;;;;;32.58;18.00;;;;;;;;;;6316379;22;20007;-74
2022/01/24 07:40:42;;;;;;;35.75;18.70;;;;;;;;;;6309358;22;20498;-72
2022/01/24 07:43:12;;;;;;;32.00;17.50;;;;;;;;;;6309414;22;20464;-76
2022/01/24 07:45:42;;;;;;;28.10;15.35;;;;;;;;;;6308890;22;20090;-74
2022/01/24 07:48:12;;;;;;;33.08;18.80;;;;;;;;;;6309350;22;20004;-74
2022/01/24 07:50:40;;;;;;;28.45;16.75;;;;;;;;;;6282456;22;20429;-74
2022/01/24 07:53:14;;;;;;;28.92;15.25;;;;;;;;;;6285657;22;20003;-85
2022/01/24 07:55:41;;;;;;;30.02;16.38;;;;;;;;;;6280717;22;20082;-75
2022/01/24 07:58:07;;;;;;;28.60;16.58;;;;;;;;;;6281386;22;20007;-78
2022/01/24 08:00:38;;;;;;;31.42;16.77;;;;;;;;;;6317044;22;20000;-76
2022/01/24 08:03:05;;;;;;;25.17;15.25;;;;;;;;;;6309386;22;20054;-74
2022/01/24 08:05:33;;;;;;;30.67;17.77;;;;;;;;;;6286154;22;20003;-85
2022/01/24 08:08:00;;;;;;;55.08;32.20;;;;;;;;;;6315582;22;20007;-76
2022/01/24 08:10:26;;;;;;;59.58;41.03;;;;;;;;;;6315639;22;20480;-79
2022/01/24 08:12:52;;;;;;;27.52;17.58;;;;;;;;;;6325441;22;20026;-75
2022/01/24 08:15:18;;;;;;;24.67;14.88;;;;;;;;;;6313409;22;20059;-74
2022/01/24 08:17:45;;;;;;;26.00;15.18;;;;;;;;;;6289796;22;20000;-83
2022/01/24 08:20:23;;;;;;;31.05;17.42;;;;;;;;;;6293674;22;20003;-90
2022/01/24 08:23:13;;;;;;;30.05;17.90;;;;;;;;;;6322172;22;20041;-83
2022/01/24 08:25:51;;;;;;;34.47;19.35;;;;;;;;;;6317803;22;20011;-75
2022/01/24 08:28:18;;;;;;;31.70;18.23;;;;;;;;;;6292887;22;20018;-72
2022/01/24 08:30:45;;;;;;;52.38;27.55;;;;;;;;;;6314048;22;20010;-85
2022/01/24 08:33:14;;;;;;;29.33;18.13;;;;;;;;;;6316686;22;20096;-78
2022/01/24 08:35:47;;;;;;;28.42;17.02;;;;;;;;;;6318903;22;20007;-83
2022/01/24 08:38:13;;;;;;;30.85;19.00;;;;;;;;;;6318173;22;20070;-85
2022/01/24 08:40:45;;;;;;;33.60;18.35;;;;;;;;;;6314567;22;20369;-77
2022/01/24 08:43:11;;;;;;;32.05;17.50;;;;;;;;;;6315753;22;20003;-77
2022/01/24 08:45:50;;;;;;;28.20;16.95;;;;;;;;;;6287313;22;20433;-83
2022/01/24 08:48:19;;;;;;;38.33;23.00;;;;;;;;;;6292960;22;20007;-76
2022/01/24 08:50:57;;;;;;;30.85;17.40;;;;;;;;;;6293932;22;20009;-88
2022/01/24 08:53:30;;;;;;;30.33;18.35;;;;;;;;;;6319956;22;20003;-85
2022/01/24 08:55:57;;;;;;;30.58;19.42;;;;;;;;;;6287737;22;20018;-72
2022/01/24 08:58:24;;;;;;;32.42;19.00;;;;;;;;;;6284076;22;20007;-74
2022/01/24 09:00:51;;;;;;;31.35;18.33;;;;;;;;;;6308444;22;20486;-75
2022/01/24 09:03:17;;;;;;;50.25;27.95;;;;;;;;;;6310514;22;20006;-76
2022/01/24 09:05:44;;;;;;;37.60;21.83;;;;;;;;;;6284218;22;20388;-80
2022/01/24 09:08:10;;;;;;;38.67;21.05;;;;;;;;;;6283944;22;20434;-75
2022/01/24 09:10:39;;;;;;;40.75;19.50;;;;;;;;;;6312505;22;20011;-75
2022/01/24 09:13:05;;;;;;;42.90;23.33;;;;;;;;;;6311449;22;20015;-74
2022/01/24 09:15:31;;;;;;;39.17;23.42;;;;;;;;;;6311704;22;20027;-76
2022/01/24 09:17:57;;;;;;;52.72;26.10;;;;;;;;;;6282533;22;20014;-76
2022/01/24 09:20:24;;;;;;;32.70;18.67;;;;;;;;;;6285560;22;20046;-75
2022/01/24 09:22:51;;;;;;;34.20;17.83;;;;;;;;;;6313106;22;19999;-77
2022/01/24 09:25:18;;;;;;;36.67;19.52;;;;;;;;;;6287209;22;20429;-79
2022/01/24 09:27:44;;;;;;;33.13;19.15;;;;;;;;;;6315109;22;20115;-78
2022/01/24 09:30:11;;;;;;;28.77;16.20;;;;;;;;;;6314296;22;20114;-77
2022/01/24 09:32:38;;;;;;;27.52;15.80;;;;;;;;;;6289237;22;20003;-86
2022/01/24 09:35:05;;;;;;;28.58;15.65;;;;;;;;;;6290535;22;20010;-76
2022/01/24 09:37:31;;;;;;;39.10;20.40;;;;;;;;;;6256275;22;20088;-75
2022/01/24 09:39:59;;;;;;;34.40;18.58;;;;;;;;;;6282089;22;20314;-75
2022/01/24 09:42:26;;;;;;;29.85;17.90;;;;;;;;;;6280556;22;20008;-76
2022/01/24 09:44:52;;;;;;;34.25;19.73;;;;;;;;;;6290120;22;20012;-73
2022/01/24 09:47:18;;;;;;;38.28;21.60;;;;;;;;;;6278095;22;20038;-74
2022/01/24 09:49:46;;;;;;;36.33;20.77;;;;;;;;;;6280197;22;20003;-76
2022/01/24 09:52:13;;;;;;;37.67;19.67;;;;;;;;;;6281379;22;20000;-74
2022/01/24 09:54:39;;;;;;;28.42;15.43;;;;;;;;;;6279711;22;20004;-76
2022/01/24 09:57:07;;;;;;;26.67;14.93;;;;;;;;;;6280494;22;20017;-75
2022/01/24 09:59:37;;;;;;;31.25;16.88;;;;;;;;;;6281379;22;20003;-75
2022/01/24 10:02:04;;;;;;;38.30;22.35;;;;;;;;;;6280456;22;20007;-75
2022/01/24 10:04:31;;;;;;;39.95;23.73;;;;;;;;;;6280969;22;20051;-74
2022/01/24 10:07:01;;;;;;;41.90;23.73;;;;;;;;;;6280563;22;20018;-77
2022/01/24 10:09:30;;;;;;;37.95;22.17;;;;;;;;;;6278109;22;20008;-74
2022/01/24 10:12:06;;;;;;;41.00;23.55;;;;;;;;;;6277012;22;20007;-77
2022/01/24 10:17:23;;;;;;;45.10;27.35;;;;;;;;;;6278434;22;20091;-72
2022/01/24 10:19:50;;;;;;;40.30;23.17;;;;;;;;;;6278515;22;20019;-80
2022/01/24 10:22:17;;;;;;;35.95;19.92;;;;;;;;;;6281535;22;20441;-73
2022/01/24 10:24:45;;;;;;;42.13;23.65;;;;;;;;;;6280430;22;20333;-77
2022/01/24 10:27:27;;;;;;;45.17;27.42;;;;;;;;;;6278004;22;20011;-74
2022/01/24 10:30:02;;;;;;;46.38;25.23;;;;;;;;;;6279445;22;20083;-76
2022/01/24 10:32:37;;;;;;;51.03;26.98;;;;;;;;;;6279064;22;20008;-77
2022/01/24 10:35:22;;;;;;;42.88;28.25;;;;;;;;;;6278493;22;19996;-74
2022/01/24 10:37:51;;;;;;;42.70;23.17;;;;;;;;;;6276922;22;20021;-76
2022/01/24 10:40:46;;;;;;;36.75;20.85;;;;;;;;;;6278624;22;20004;-80
2022/01/24 10:43:20;;;;;;;38.95;22.17;;;;;;;;;;6280665;22;20065;-76
2022/01/24 10:45:47;;;;;;;56.22;36.95;;;;;;;;;;6279689;22;20091;-76
2022/01/24 10:48:13;;;;;;;38.50;21.40;;;;;;;;;;6275784;22;20059;-74
2022/01/24 10:50:40;;;;;;;38.22;19.95;;;;;;;;;;6277879;22;20015;-74
2022/01/24 10:53:11;;;;;;;38.00;21.73;;;;;;;;;;6279375;22;20010;-75
2022/01/24 10:55:39;;;;;;;34.67;19.75;;;;;;;;;;6278759;22;20130;-75
2022/01/24 10:58:05;;;;;;;41.47;22.27;;;;;;;;;;6278171;22;20004;-74
2022/01/24 11:00:34;;;;;;;35.05;19.10;;;;;;;;;;6276803;22;19996;-75
2022/01/24 11:03:02;;;;;;;28.85;16.08;;;;;;;;;;6276686;22;20011;-74
2022/01/24 11:05:35;;;;;;;25.83;15.18;;;;;;;;;;6279542;22;19996;-74
2022/01/24 11:08:08;;;;;;;25.17;14.48;;;;;;;;;;6278890;22;20014;-73
2022/01/24 11:10:39;;;;;;;30.23;17.75;;;;;;;;;;6277588;22;20146;-75
2022/01/24 11:13:06;;;;;;;24.65;14.30;;;;;;;;;;6281063;22;20420;-78
2022/01/24 11:15:35;;;;;;;29.45;13.98;;;;;;;;;;6279217;22;20059;-76
2022/01/24 11:18:02;;;;;;;21.65;13.35;;;;;;;;;;6277241;22;20023;-76
2022/01/24 11:20:33;;;;;;;24.30;15.15;;;;;;;;;;6279799;22;20111;-74
2022/01/24 11:23:05;;;;;;;31.02;16.00;;;;;;;;;;6279853;22;20008;-74
2022/01/24 11:25:40;;;;;;;30.17;14.73;;;;;;;;;;6280698;22;20117;-76
2022/01/24 11:28:07;;;;;;;24.23;13.95;;;;;;;;;;6281034;22;20426;-77
2022/01/24 11:30:52;;;;;;;28.00;13.63;;;;;;;;;;6281192;22;20006;-75
2022/01/24 11:33:21;;;;;;;31.23;15.05;;;;;;;;;;6280251;22;20042;-74
2022/01/24 11:35:54;;;;;;;24.10;13.85;;;;;;;;;;6279267;22;19996;-74
2022/01/24 11:38:26;;;;;;;20.00;12.60;;;;;;;;;;6282499;22;20099;-74
2022/01/24 11:40:58;;;;;;;25.77;15.27;;;;;;;;;;6282836;22;20074;-75
2022/01/24 11:43:25;;;;;;;28.27;14.48;;;;;;;;;;6282027;22;20024;-75
2022/01/24 11:46:08;;;;;;;27.85;14.63;;;;;;;;;;6282021;22;20007;-76
2022/01/24 11:48:36;;;;;;;33.97;15.68;;;;;;;;;;6283694;22;20014;-76
2022/01/24 11:51:06;;;;;;;25.10;14.23;;;;;;;;;;6285537;22;20012;-82
2022/01/24 11:53:34;;;;;;;29.17;16.15;;;;;;;;;;6290915;22;20433;-90
2022/01/24 11:56:20;;;;;;;28.42;15.98;;;;;;;;;;6287459;22;20015;-80
2022/01/24 11:58:47;;;;;;;25.92;14.68;;;;;;;;;;6284387;22;19996;-75
2022/01/24 12:01:19;;;;;;;27.60;14.95;;;;;;;;;;6283456;22;20003;-76
2022/01/24 12:03:52;;;;;;;34.22;14.88;;;;;;;;;;6283353;22;19999;-77
2022/01/24 12:06:20;;;;;;;26.15;15.43;;;;;;;;;;6286774;22;20022;-90
2022/01/24 12:08:47;;;;;;;27.40;15.48;;;;;;;;;;6289636;22;19996;-75
2022/01/24 12:11:23;;;;;;;31.23;16.92;;;;;;;;;;6288390;22;20063;-77
2022/01/24 12:13:53;;;;;;;28.48;16.02;;;;;;;;;;6290515;22;20023;-76
2022/01/24 12:16:22;;;;;;;30.13;17.15;;;;;;;;;;6287202;22;20072;-76
2022/01/24 12:18:54;;;;;;;40.33;18.25;;;;;;;;;;6289328;22;20004;-77
2022/01/24 12:21:34;;;;;;;26.88;15.50;;;;;;;;;;6287817;22;19980;-94
2022/01/24 12:24:16;;;;;;;34.33;17.30;;;;;;;;;;6294589;22;20008;-88
2022/01/24 12:27:07;;;;;;;28.85;14.77;;;;;;;;;;6288568;22;20486;-92
2022/01/24 12:29:47;;;;;;;24.65;15.40;;;;;;;;;;6289837;22;20465;-79
2022/01/24 12:32:23;;;;;;;33.72;16.67;;;;;;;;;;6289413;22;19999;-89
2022/01/24 12:34:49;;;;;;;26.45;14.57;;;;;;;;;;6297606;22;20019;-91
2022/01/24 12:37:30;;;;;;;26.23;15.73;;;;;;;;;;6285116;22;20043;-87
2022/01/24 12:40:02;;;;;;;26.90;15.98;;;;;;;;;;6284068;22;20093;-89
2022/01/24 12:42:37;;;;;;;29.27;15.57;;;;;;;;;;6281972;22;20011;-82
2022/01/24 12:48:08;;;;;;;26.83;14.73;;;;;;;;;;6280814;22;20026;-82
2022/01/24 12:50:34;;;;;;;25.00;14.63;;;;;;;;;;6282146;22;20007;-82
2022/01/24 12:53:00;;;;;;;27.77;15.23;;;;;;;;;;6282098;22;20008;-73
2022/01/24 12:55:27;;;;;;;30.33;14.43;;;;;;;;;;6285017;22;20000;-92
2022/01/24 12:57:57;;;;;;;22.95;14.68;;;;;;;;;;6287658;22;19999;-85
2022/01/24 13:00:23;;;;;;;27.98;16.33;;;;;;;;;;6282959;22;20035;-77
2022/01/24 13:02:49;;;;;;;39.72;15.88;;;;;;;;;;6282526;22;20003;-81
2022/01/24 13:05:35;;;;;;;26.05;14.88;;;;;;;;;;6285027;22;20003;-83
2022/01/24 13:08:04;;;;;;;28.20;15.18;;;;;;;;;;6283955;22;20020;-78
2022/01/24 13:10:48;;;;;;;24.60;14.55;;;;;;;;;;6291688;22;20019;-83
2022/01/24 13:13:18;;;;;;;;;;;;;;;;;;6294057;22;20000;-86
2022/01/24 13:21:25;;;;;;;37.70;16.00;;;;;;;;;;6287558;22;20042;-91
2022/01/24 13:23:57;;;;;;;34.25;17.20;;;;;;;;;;6286264;22;20429;-76
2022/01/24 13:26:33;;;;;;;34.30;18.10;;;;;;;;;;6292774;22;20016;-74
2022/01/24 13:29:09;;;;;;;33.33;20.13;;;;;;;;;;6245384;22;20012;-91
2022/01/24 13:32:04;;;;;;;30.95;17.77;;;;;;;;;;6295342;22;20012;-87
2022/01/24 13:34:30;;;;;;;40.80;21.65;;;;;;;;;;6282174;22;20085;-77
2022/01/24 13:37:07;;;;;;;38.15;19.85;;;;;;;;;;6282398;22;20011;-76
2022/01/24 13:39:36;;;;;;;34.85;19.45;;;;;;;;;;6281801;22;20072;-80
2022/01/24 13:42:06;;;;;;;36.50;20.00;;;;;;;;;;6293901;22;20008;-76
2022/01/24 13:44:35;;;;;;;32.47;19.33;;;;;;;;;;6290953;22;19996;-76
2022/01/24 13:47:08;;;;;;;35.22;19.48;;;;;;;;;;6298878;22;20012;-75
2022/01/24 13:49:36;;;;;;;30.00;19.48;;;;;;;;;;6299166;22;19999;-75
2022/01/24 13:52:07;;;;;;;40.42;23.02;;;;;;;;;;6272774;22;20011;-75
2022/01/24 13:54:35;;;;;;;32.90;20.08;;;;;;;;;;6298712;22;20046;-75
2022/01/24 13:57:04;;;;;;;33.42;19.60;;;;;;;;;;6296307;22;20004;-77
2022/01/24 13:59:32;;;;;;;33.13;18.98;;;;;;;;;;6294804;22;20010;-79
2022/01/24 14:02:02;;;;;;;36.83;19.50;;;;;;;;;;6291591;22;20027;-74
2022/01/24 14:04:38;;;;;;;31.90;18.88;;;;;;;;;;6293355;22;20007;-75
2022/01/24 14:07:12;;;;;;;36.00;21.48;;;;;;;;;;6291975;22;20012;-76
2022/01/24 14:09:38;;;;;;;;;;;;;;;;;;6295498;22;20007;-76
2022/01/24 14:12:05;;;;;;;34.72;19.83;;;;;;;;;;6297099;22;19899;-77
2022/01/24 14:14:58;;;;;;;34.92;19.33;;;;;;;;;;6295198;22;19999;-76
2022/01/24 14:20:14;;;;;;;37.78;19.00;;;;;;;;;;6293881;22;20018;-75
2022/01/24 14:22:46;;;;;;;29.92;18.35;;;;;;;;;;6290655;22;20000;-80
2022/01/24 14:25:15;;;;;;;34.05;18.40;;;;;;;;;;6288344;22;20030;-79
2022/01/24 14:27:47;;;;;;;30.50;18.05;;;;;;;;;;6286839;22;20007;-91
2022/01/24 14:30:20;;;;;;;34.15;17.83;;;;;;;;;;6288365;22;20049;-91
2022/01/24 14:32:58;;;;;;;29.88;18.52;;;;;;;;;;6285473;22;20074;-81
2022/01/24 14:35:24;;;;;;;30.95;18.48;;;;;;;;;;6285520;22;19996;-86
2022/01/24 14:37:52;;;;;;;38.00;18.85;;;;;;;;;;6284982;22;20011;-75
2022/01/24 14:40:31;;;;;;;32.28;17.55;;;;;;;;;;6282066;22;19995;-80
2022/01/24 14:44:53;;;;;;;31.05;18.15;;;;;;;;;;6284956;22;20004;-76
2022/01/24 14:45:45;;;;;;;29.25;17.48;;;;;;;;;;6291842;22;20003;-79
2022/01/24 14:48:12;;;;;;;30.05;18.13;;;;;;;;;;6292519;22;20012;-81
2022/01/24 14:50:39;;;;;;;27.65;17.55;;;;;;;;;;6288523;22;20071;-87
2022/01/24 14:53:15;;;;;;;33.40;19.42;;;;;;;;;;6292636;22;20000;-77
2022/01/24 14:55:46;;;;;;;33.17;18.88;;;;;;;;;;6290323;22;20376;-77
2022/01/24 14:58:26;;;;;;;31.52;18.23;;;;;;;;;;6287703;22;19984;-75
2022/01/24 15:00:58;;;;;;;33.78;18.75;;;;;;;;;;6290187;22;20010;-81
2022/01/24 15:03:28;;;;;;;28.90;17.25;;;;;;;;;;6289623;22;19999;-74
2022/01/24 15:05:58;;;;;;;32.13;18.95;;;;;;;;;;6293020;22;20027;-85
2022/01/24 15:08:27;;;;;;;32.35;18.98;;;;;;;;;;6292593;22;20341;-79
2022/01/24 15:10:53;;;;;;;35.60;17.52;;;;;;;;;;6250147;23;20043;-77
2022/01/24 15:13:23;;;;;;;29.80;15.57;;;;;;;;;;6254477;23;20011;-78
2022/01/24 15:16:12;;;;;;;27.83;15.32;;;;;;;;;;6237318;23;20007;-87
2022/01/24 15:27:02;;;;;;;30.10;16.58;;;;;;;;;;6252307;23;20047;-89
2022/01/24 15:29:44;;;;;;;32.38;18.85;;;;;;;;;;6229942;23;20004;-81
2022/01/24 15:32:14;;;;;;;30.25;17.10;;;;;;;;;;6226696;23;20083;-73
2022/01/24 15:34:45;;;;;;;33.65;18.92;;;;;;;;;;6251944;23;20004;-78
2022/01/24 15:37:13;;;;;;;43.83;24.30;;;;;;;;;;6252260;23;20020;-75
2022/01/24 15:39:41;;;;;;;41.58;24.55;;;;;;;;;;6252480;23;20059;-73
2022/01/24 15:42:31;;;;;;;34.30;18.98;;;;;;;;;;6273999;22;20012;-73
2022/01/24 15:47:55;;;;;;;33.08;17.05;;;;;;;;;;6293804;22;20035;-92
2022/01/24 15:53:18;;;;;;;33.15;19.63;;;;;;;;;;6280894;22;20029;-76
2022/01/24 15:56:13;;;;;;;40.60;21.33;;;;;;;;;;6263038;22;20421;-85
2022/01/24 15:58:36;;;;;;;57.95;31.15;;;;;;;;;;6293993;22;20012;-78
2022/01/24 16:01:09;;;;;;;56.92;35.50;;;;;;;;;;6296286;22;19995;-75
2022/01/24 16:03:42;;;;;;;42.38;27.25;;;;;;;;;;6265809;23;20008;-79